Time;durP1;ratioP1;P1;durP2;ratioP2;P2;SDS_P1;SDS_P2;PMS_P1;PMS_P2;Temp;Humidity;BMP_temperature;BMP_pressure;BME280_temperature;BME280_humidity;BME280_pressure;Samples;Min_cycle;Max_cycle;Signal;HPM_P1;HPM_P2
2022/04/20 00:00:52;;;;;;;1.38;0.65;;;;;;;25.52;27.11;101370.72;4957962;29;20072;-49
2022/04/20 00:03:21;;;;;;;3.67;1.10;;;;;;;25.58;26.98;101370.78;4958305;29;20054;-49
2022/04/20 00:05:49;;;;;;;3.40;1.33;;;;;;;25.54;27.05;101373.38;4957989;29;20023;-50
2022/04/20 00:08:18;;;;;;;4.75;1.35;;;;;;;25.56;27.17;101371.66;4958090;29;20026;-51
2022/04/20 00:10:46;;;;;;;2.38;1.17;;;;;;;25.66;26.97;101372.63;4957813;29;20023;-50
2022/04/20 00:13:15;;;;;;;2.53;1.10;;;;;;;25.57;26.74;101369.03;4957978;29;20035;-50
2022/04/20 00:15:43;;;;;;;2.05;1.08;;;;;;;25.60;27.05;101368.19;4958101;29;20027;-49
2022/04/20 00:18:11;;;;;;;1.65;0.75;;;;;;;25.54;27.05;101353.22;4958089;29;20027;-49
2022/04/20 00:20:40;;;;;;;2.85;1.13;;;;;;;25.52;26.77;101360.19;4958142;29;20041;-48
2022/04/20 00:23:09;;;;;;;3.85;1.27;;;;;;;25.50;27.27;101350.53;4957761;29;20031;-49
2022/04/20 00:25:36;;;;;;;1.45;0.70;;;;;;;25.56;26.86;101356.75;4957634;29;20062;-47
2022/04/20 00:28:05;;;;;;;2.38;1.00;;;;;;;25.60;26.85;101355.03;4957836;29;20069;-48
2022/04/20 00:30:35;;;;;;;3.35;1.20;;;;;;;25.52;26.90;101352.31;4940477;29;20058;-48
2022/04/20 00:33:02;;;;;;;2.67;1.02;;;;;;;25.60;26.68;101353.31;4957393;29;20023;-47
2022/04/20 00:35:31;;;;;;;2.50;1.38;;;;;;;25.55;26.82;101344.47;4956970;29;20046;-48
2022/04/20 00:38:00;;;;;;;2.65;1.05;;;;;;;25.65;27.05;101345.47;4956477;29;20469;-47
2022/04/20 00:40:29;;;;;;;3.70;0.90;;;;;;;25.65;26.98;101345.47;4956988;29;20031;-51
2022/04/20 00:42:57;;;;;;;2.38;1.08;;;;;;;25.57;27.14;101336.59;4957336;29;20031;-49
2022/04/20 00:45:26;;;;;;;5.32;1.13;;;;;;;25.60;26.83;101337.53;4940584;29;20100;-50
2022/04/20 00:47:55;;;;;;;4.25;1.20;;;;;;;25.53;27.16;101332.19;4957091;29;20031;-50
2022/04/20 00:50:24;;;;;;;2.55;1.08;;;;;;;25.52;27.02;101331.31;4940220;29;20039;-49
2022/04/20 00:52:52;;;;;;;3.38;1.08;;;;;;;25.47;27.37;101328.63;4956974;28;20106;-48
2022/04/20 00:55:21;;;;;;;1.90;0.98;;;;;;;25.44;27.41;101327.72;4940125;29;20034;-50
2022/04/20 00:57:49;;;;;;;2.30;1.15;;;;;;;25.43;27.00;101321.56;4957084;29;20554;-48
2022/04/20 01:00:17;;;;;;;2.28;1.05;;;;;;;25.47;27.25;101323.38;4956780;29;20031;-52
2022/04/20 01:02:46;;;;;;;5.72;1.25;;;;;;;25.45;26.99;101318.97;4939928;29;20035;-51
2022/04/20 01:05:14;;;;;;;2.75;0.85;;;;;;;25.45;27.15;101317.22;4939933;29;20469;-49
2022/04/20 01:07:43;;;;;;;5.15;0.95;;;;;;;25.47;27.22;101312.00;4956870;29;20062;-49
2022/04/20 01:10:13;;;;;;;3.88;1.40;;;;;;;25.47;27.01;101302.38;4956901;29;20032;-48
2022/04/20 01:12:45;;;;;;;2.92;0.88;;;;;;;25.54;26.99;101305.94;4956791;29;20031;-47
2022/04/20 01:15:14;;;;;;;3.55;1.38;;;;;;;25.51;26.97;101308.53;4957172;29;20028;-49
2022/04/20 01:17:43;;;;;;;2.83;1.50;;;;;;;25.55;26.90;101301.59;4956500;29;20477;-49
2022/04/20 01:20:17;;;;;;;1.80;1.13;;;;;;;25.56;26.91;101304.22;4956699;29;20027;-48
2022/04/20 01:22:46;;;;;;;;;;;;;;;25.60;26.99;101302.50;4957329;29;20027;-47
2022/04/20 01:25:15;;;;;;;3.53;1.02;;;;;;;25.58;27.06;101302.50;4956997;29;19918;-49
2022/04/20 01:27:43;;;;;;;3.35;1.20;;;;;;;25.58;26.80;101306.84;4956825;29;20374;-47
2022/04/20 01:30:12;;;;;;;2.70;1.13;;;;;;;25.52;27.01;101305.03;4956077;29;20042;-48
2022/04/20 01:32:41;;;;;;;3.03;1.20;;;;;;;25.52;27.31;101305.03;4956380;29;20078;-47
2022/04/20 01:35:09;;;;;;;3.15;1.05;;;;;;;25.49;27.34;101297.13;4956190;29;20108;-49
2022/04/20 01:37:38;;;;;;;3.03;1.20;;;;;;;25.52;26.85;101297.16;4956328;29;20035;-47
2022/04/20 01:40:07;;;;;;;3.75;1.23;;;;;;;25.48;27.11;101301.50;4956202;29;20034;-50
2022/04/20 01:42:36;;;;;;;2.58;1.00;;;;;;;25.46;26.99;101302.34;4956454;29;20508;-50
2022/04/20 01:45:05;;;;;;;1.63;0.80;;;;;;;25.43;26.97;101297.06;4956220;29;20035;-48
2022/04/20 01:47:34;;;;;;;2.13;0.95;;;;;;;25.42;27.00;101297.91;4956228;29;20091;-49
2022/04/20 01:50:02;;;;;;;2.63;1.13;;;;;;;25.44;27.21;101299.69;4956015;29;20031;-48
2022/04/20 01:52:31;;;;;;;2.95;1.13;;;;;;;25.49;26.92;101307.63;4955587;29;20123;-49
2022/04/20 01:55:00;;;;;;;2.97;1.23;;;;;;;25.49;26.93;101299.75;4956256;29;20068;-47
2022/04/20 01:57:29;;;;;;;2.75;1.30;;;;;;;25.39;27.17;101303.09;4939472;29;20038;-46
2022/04/20 01:59:57;;;;;;;2.35;1.08;;;;;;;25.33;27.36;101291.63;4955988;29;20055;-50
2022/04/20 02:02:35;;;;;;;2.35;0.90;;;;;;;25.34;27.56;101296.03;4955625;29;20031;-51
2022/04/20 02:05:04;;;;;;;2.00;0.82;;;;;;;25.24;27.36;101294.16;4955469;28;20036;-49
2022/04/20 02:07:32;;;;;;;4.35;1.20;;;;;;;25.33;27.56;101294.28;4955508;29;20170;-53
2022/04/20 02:10:01;;;;;;;3.70;1.35;;;;;;;25.36;27.17;101298.69;4955738;29;20087;-53
2022/04/20 02:12:30;;;;;;;2.95;1.17;;;;;;;25.33;27.17;101301.28;4955413;29;20469;-52
2022/04/20 02:14:59;;;;;;;3.50;1.30;;;;;;;25.36;27.54;101297.81;4955756;29;20035;-48
2022/04/20 02:17:28;;;;;;;2.92;0.95;;;;;;;25.36;27.40;101297.81;4955540;29;20027;-51
2022/04/20 02:19:59;;;;;;;4.20;1.20;;;;;;;25.33;27.29;101306.53;4955483;29;20034;-50
2022/04/20 02:22:28;;;;;;;2.50;1.00;;;;;;;25.26;27.54;101300.31;4955512;29;20079;-49
2022/04/20 02:24:56;;;;;;;2.33;0.90;;;;;;;25.25;27.67;101309.06;4955332;29;20035;-49
2022/04/20 02:27:25;;;;;;;3.75;1.25;;;;;;;25.22;27.26;101311.63;4955324;29;20497;-52
2022/04/20 02:29:53;;;;;;;4.38;1.15;;;;;;;25.25;27.60;101313.41;4955095;29;20102;-51
2022/04/20 02:32:22;;;;;;;3.58;1.40;;;;;;;25.26;27.39;101308.19;4954829;29;20118;-49
2022/04/20 02:34:51;;;;;;;4.03;1.73;;;;;;;25.32;27.60;101305.63;4955489;29;20118;-48
2022/04/20 02:37:20;;;;;;;3.78;1.27;;;;;;;25.28;27.46;101308.22;4955666;29;20464;-53
2022/04/20 02:39:48;;;;;;;5.43;1.40;;;;;;;25.31;27.54;101309.16;4954224;29;20054;-50
2022/04/20 02:42:18;;;;;;;4.03;1.60;;;;;;;25.26;27.87;101309.94;4955098;29;20551;-51
2022/04/20 02:44:47;;;;;;;4.60;1.30;;;;;;;25.35;27.47;101304.81;4955264;29;20112;-48
2022/04/20 02:47:17;;;;;;;3.88;1.30;;;;;;;25.32;27.50;101308.25;4954752;29;20123;-49
2022/04/20 02:49:45;;;;;;;2.00;0.82;;;;;;;25.30;27.30;101311.75;4954871;29;20043;-51
2022/04/20 02:52:14;;;;;;;1.98;0.90;;;;;;;25.23;27.72;101316.03;4955055;29;20168;-50
2022/04/20 02:54:42;;;;;;;2.95;1.02;;;;;;;25.26;27.69;101310.81;4954449;29;20027;-51
2022/04/20 02:57:11;;;;;;;4.47;1.38;;;;;;;25.20;27.41;101302.84;4955280;29;20478;-49
2022/04/20 02:59:39;;;;;;;3.45;1.20;;;;;;;25.22;27.50;101295.88;4955104;29;20397;-52
2022/04/20 03:02:08;;;;;;;4.63;1.30;;;;;;;25.28;27.40;101288.09;4955187;29;20035;-53
2022/04/20 03:04:37;;;;;;;4.15;1.20;;;;;;;25.21;27.86;101283.63;4955088;29;20034;-52
2022/04/20 03:07:05;;;;;;;4.13;1.20;;;;;;;25.26;27.44;101289.81;4937063;29;20092;-52
2022/04/20 03:09:34;;;;;;;5.38;1.20;;;;;;;25.30;27.35;101285.47;4954950;29;20492;-51
2022/04/20 03:12:02;;;;;;;4.55;1.35;;;;;;;25.25;27.64;101279.28;4937683;29;20035;-53
2022/04/20 03:14:31;;;;;;;3.55;1.30;;;;;;;25.26;27.40;101283.66;4938009;29;20106;-53
2022/04/20 03:17:00;;;;;;;3.47;1.13;;;;;;;25.27;27.75;101283.72;4955860;28;20038;-50
2022/04/20 03:19:28;;;;;;;4.18;1.13;;;;;;;25.25;27.64;101281.91;4959160;29;20034;-51
2022/04/20 03:21:57;;;;;;;4.32;1.40;;;;;;;25.21;27.66;101275.75;4941607;29;20034;-44
2022/04/20 03:24:26;;;;;;;3.30;1.10;;;;;;;25.22;27.85;101269.63;4959005;29;20397;-50
2022/04/20 03:26:54;;;;;;;3.33;1.15;;;;;;;25.29;27.59;101276.75;4959119;29;20038;-48
2022/04/20 03:29:23;;;;;;;4.50;1.38;;;;;;;25.24;27.88;101270.53;4959327;29;20058;-51
2022/04/20 03:31:51;;;;;;;3.42;1.45;;;;;;;25.17;27.98;101266.97;4958417;29;20027;-50
2022/04/20 03:34:20;;;;;;;3.35;1.27;;;;;;;25.21;27.79;101269.63;4941246;29;20051;-51
2022/04/20 03:36:49;;;;;;;3.22;1.10;;;;;;;25.20;27.41;101271.34;4958454;29;20027;-48
2022/04/20 03:39:17;;;;;;;4.60;1.40;;;;;;;25.20;27.91;101268.72;4958433;29;20451;-46
2022/04/20 03:41:45;;;;;;;2.85;1.20;;;;;;;25.15;27.84;101275.69;4958475;29;20070;-50
2022/04/20 03:44:14;;;;;;;3.47;1.30;;;;;;;25.20;27.84;101273.97;4958730;29;20027;-49
2022/04/20 03:46:43;;;;;;;2.58;1.23;;;;;;;25.15;27.62;101276.56;4958291;29;20042;-48
2022/04/20 03:49:11;;;;;;;2.83;1.15;;;;;;;25.21;27.82;101280.13;4958216;29;20027;-47
2022/04/20 03:51:40;;;;;;;4.75;1.02;;;;;;;25.22;27.92;101272.25;4957885;29;20083;-49
2022/04/20 03:54:09;;;;;;;4.35;1.58;;;;;;;25.26;27.63;101273.16;4958216;29;20048;-48
2022/04/20 03:57:20;;;;;;;3.42;1.00;;;;;;;25.18;28.00;101273.06;4958245;29;20482;-49
2022/04/20 03:59:24;;;;;;;4.63;1.35;;;;;;;25.19;27.52;101264.34;4951451;29;20063;-50
2022/04/20 04:01:53;;;;;;;2.78;1.00;;;;;;;25.01;27.71;101234.38;4957817;29;20035;-51
2022/04/20 04:04:21;;;;;;;3.47;1.15;;;;;;;25.22;27.97;101277.50;4940987;29;20421;-48
2022/04/20 04:06:50;;;;;;;3.83;1.25;;;;;;;25.22;27.82;101271.38;4957973;29;20458;-51
2022/04/20 04:09:19;;;;;;;3.15;1.23;;;;;;;25.24;27.70;101272.25;4957928;29;20469;-53
2022/04/20 04:11:46;;;;;;;2.72;1.02;;;;;;;25.24;27.88;101270.53;4957780;29;20465;-52
2022/04/20 04:14:15;;;;;;;4.05;1.40;;;;;;;25.22;27.71;101264.38;4957449;29;20222;-50
2022/04/20 04:16:44;;;;;;;2.22;1.13;;;;;;;25.20;28.06;101265.22;4957983;29;20027;-54
2022/04/20 04:19:12;;;;;;;2.55;1.15;;;;;;;25.21;27.73;101260.00;4957841;29;20035;-52
2022/04/20 04:21:40;;;;;;;3.28;1.20;;;;;;;25.17;28.02;101258.19;4957707;29;20023;-50
2022/04/20 04:24:34;;;;;;;2.10;0.85;;;;;;;25.12;28.01;101254.63;4957781;29;20385;-51
2022/04/20 04:26:58;;;;;;;7.20;1.73;;;;;;;25.06;27.81;101254.53;4957525;29;20035;-51
2022/04/20 04:29:27;;;;;;;3.13;1.30;;;;;;;25.12;28.06;101257.25;4940185;29;20388;-51
2022/04/20 04:31:55;;;;;;;6.13;1.70;;;;;;;25.17;27.69;101253.81;4956999;29;20072;-54
2022/04/20 04:34:23;;;;;;;4.45;1.67;;;;;;;25.20;27.66;101260.84;4940141;29;20473;-49
2022/04/20 04:36:53;;;;;;;5.00;1.40;;;;;;;25.14;28.08;101256.41;4957161;29;20568;-50
2022/04/20 04:39:22;;;;;;;3.38;0.80;;;;;;;25.15;27.59;101247.69;4940052;29;20123;-52
2022/04/20 04:41:50;;;;;;;3.25;1.08;;;;;;;25.16;27.74;101235.41;4957578;29;20062;-44
2022/04/20 04:44:20;;;;;;;4.45;1.63;;;;;;;25.22;27.97;101234.63;4957257;29;20466;-46
2022/04/20 04:49:36;;;;;;;4.85;1.52;;;;;;;25.20;27.58;101231.97;4950917;29;20047;-48
2022/04/20 04:52:10;;;;;;;3.30;1.10;;;;;;;25.24;27.74;101241.66;4957468;29;20047;-48
2022/04/20 04:54:40;;;;;;;4.15;1.40;;;;;;;25.22;27.77;101239.88;4957176;29;20066;-50
2022/04/20 04:57:09;;;;;;;3.85;1.30;;;;;;;25.16;28.13;101240.66;4940224;29;20035;-46
2022/04/20 04:59:39;;;;;;;6.00;1.98;;;;;;;25.14;27.98;101240.66;4957191;29;20027;-47
2022/04/20 05:02:08;;;;;;;2.08;0.98;;;;;;;25.17;28.02;101242.44;4956834;29;20071;-47
2022/04/20 05:04:37;;;;;;;2.67;0.98;;;;;;;25.22;28.03;101246.00;4956698;29;20039;-49
2022/04/20 05:07:06;;;;;;;4.82;1.50;;;;;;;25.18;27.71;101239.84;4956163;29;20050;-45
2022/04/20 05:09:35;;;;;;;2.38;1.15;;;;;;;25.18;27.74;101234.59;4957078;29;20545;-49
2022/04/20 05:12:02;;;;;;;5.47;1.40;;;;;;;25.09;28.07;101237.09;4956644;29;20102;-52
2022/04/20 05:14:30;;;;;;;3.50;1.15;;;;;;;25.16;27.93;101238.03;4957185;29;20023;-50
2022/04/20 05:16:59;;;;;;;5.38;1.80;;;;;;;25.11;28.20;101234.50;4956742;29;20496;-48
2022/04/20 05:19:29;;;;;;;3.85;1.05;;;;;;;25.10;28.15;101236.22;4939548;29;20031;-48
2022/04/20 05:21:57;;;;;;;4.45;1.42;;;;;;;25.14;28.10;101226.66;4956913;29;20031;-48
2022/04/20 05:24:26;;;;;;;3.95;1.30;;;;;;;25.16;28.00;101227.53;4956546;29;20116;-51
2022/04/20 05:26:55;;;;;;;4.43;1.67;;;;;;;25.22;27.67;101237.25;4956621;29;20023;-51
2022/04/20 05:29:24;;;;;;;3.47;1.45;;;;;;;25.11;27.79;101229.25;4956844;29;20031;-52
2022/04/20 05:31:55;;;;;;;3.88;1.58;;;;;;;25.15;27.97;101226.66;4956280;29;20031;-48
2022/04/20 05:34:26;;;;;;;4.38;1.15;;;;;;;25.15;27.89;101229.28;4956418;29;20027;-49
2022/04/20 05:42:29;;;;;;;3.78;1.13;;;;;;;25.20;27.99;101223.22;4949902;29;20039;-49
2022/04/20 05:44:59;;;;;;;5.88;1.33;;;;;;;25.15;28.20;101233.69;4939765;29;20043;-48
2022/04/20 05:47:28;;;;;;;3.67;1.40;;;;;;;25.15;28.20;101237.16;4956655;29;20082;-48
2022/04/20 05:49:57;;;;;;;4.20;1.10;;;;;;;25.11;27.84;101237.13;4938800;29;20434;-50
2022/04/20 05:52:26;;;;;;;3.05;1.40;;;;;;;25.11;28.20;101239.75;4956167;29;20086;-50
2022/04/20 05:54:55;;;;;;;4.22;1.58;;;;;;;25.11;27.98;101245.00;4956092;29;20061;-49
2022/04/20 05:57:24;;;;;;;3.22;1.10;;;;;;;25.13;28.24;101240.66;4939156;29;20027;-49
2022/04/20 05:59:52;;;;;;;8.48;2.05;;;;;;;25.15;28.08;101239.78;4955667;29;20023;-49
2022/04/20 06:02:21;;;;;;;3.85;1.10;;;;;;;25.16;27.78;101243.28;4955560;29;20110;-47
2022/04/20 06:04:48;;;;;;;3.78;1.10;;;;;;;25.10;27.98;101236.22;4955972;29;20031;-50
2022/04/20 06:07:17;;;;;;;4.80;2.13;;;;;;;25.10;27.81;101241.47;4955858;29;20034;-48
2022/04/20 06:09:46;;;;;;;7.20;1.38;;;;;;;25.10;28.35;101244.09;4956011;29;20062;-48
2022/04/20 06:12:14;;;;;;;4.53;1.40;;;;;;;25.08;28.05;101245.81;4955231;29;20027;-47
2022/04/20 06:14:43;;;;;;;3.35;1.33;;;;;;;25.09;28.21;101244.09;4955684;29;20432;-49
2022/04/20 06:17:11;;;;;;;3.70;1.13;;;;;;;25.11;28.25;101242.38;4955597;29;20027;-46
2022/04/20 06:19:40;;;;;;;7.18;1.77;;;;;;;25.12;28.41;101228.38;4955807;29;20028;-48
2022/04/20 06:22:08;;;;;;;7.47;1.70;;;;;;;25.09;28.52;101233.59;4955151;29;20503;-49
2022/04/20 06:24:37;;;;;;;3.92;1.27;;;;;;;25.11;28.76;101242.38;4955689;29;20027;-49
2022/04/20 06:27:05;;;;;;;3.97;1.35;;;;;;;25.10;28.62;101243.22;4938590;29;20114;-48
2022/04/20 06:29:34;;;;;;;6.57;1.23;;;;;;;25.10;29.00;101251.09;4955313;29;20035;-50
2022/04/20 06:32:03;;;;;;;7.68;1.48;;;;;;;25.10;28.73;101249.34;4955314;29;20513;-50
2022/04/20 06:34:31;;;;;;;4.90;1.63;;;;;;;25.14;28.73;101247.66;4955354;28;20035;-47
2022/04/20 06:37:00;;;;;;;5.03;1.65;;;;;;;25.15;29.12;101246.81;4938338;29;20035;-50
2022/04/20 06:39:30;;;;;;;3.92;1.33;;;;;;;25.18;29.01;101250.34;4954963;29;20127;-49
2022/04/20 06:41:58;;;;;;;5.03;1.30;;;;;;;25.20;28.65;101246.84;4938117;29;20042;-47
2022/04/20 06:44:27;;;;;;;5.95;1.60;;;;;;;25.25;29.16;101253.03;4954822;29;20465;-49
2022/04/20 06:46:55;;;;;;;5.40;1.25;;;;;;;25.28;28.96;101255.69;4954843;29;20035;-48
2022/04/20 06:49:24;;;;;;;7.28;1.65;;;;;;;25.29;28.98;101244.31;4955055;29;20047;-46
2022/04/20 07:00:16;;;;;;;5.32;1.25;;;;;;;25.38;29.02;101235.69;4947532;29;20043;-50
2022/04/20 07:02:44;;;;;;;5.70;1.60;;;;;;;25.44;29.29;101228.78;4954957;29;20038;-45
2022/04/20 07:05:12;;;;;;;5.07;1.30;;;;;;;25.43;29.06;101232.25;4938033;29;20506;-48
2022/04/20 07:07:41;;;;;;;5.65;1.50;;;;;;;25.52;29.39;101228.00;4954880;29;20473;-48
2022/04/20 07:10:10;;;;;;;4.13;1.15;;;;;;;25.53;29.38;101229.75;4954837;29;20036;-48
2022/04/20 07:12:37;;;;;;;5.85;1.40;;;;;;;25.55;29.30;101231.53;4954816;29;20031;-49
2022/04/20 07:15:06;;;;;;;5.07;1.27;;;;;;;25.59;28.91;101222.81;4954862;29;20514;-46
2022/04/20 07:17:35;;;;;;;7.03;1.30;;;;;;;25.66;29.41;101230.75;4938158;29;20031;-48
2022/04/20 07:20:04;;;;;;;3.17;1.10;;;;;;;25.60;29.20;101219.31;4954920;29;20024;-52
2022/04/20 07:22:33;;;;;;;4.07;1.33;;;;;;;25.72;29.10;101228.19;4954951;29;20031;-47
2022/04/20 07:25:02;;;;;;;5.18;1.27;;;;;;;25.71;29.59;101232.56;4955106;29;20134;-48
2022/04/20 07:27:32;;;;;;;3.03;1.20;;;;;;;25.76;29.49;101241.38;4954750;29;20031;-48
2022/04/20 07:30:01;;;;;;;5.03;1.55;;;;;;;25.82;29.10;101229.16;4954789;29;20035;-44
2022/04/20 07:32:29;;;;;;;4.35;1.40;;;;;;;25.83;29.25;101236.19;4954713;29;20102;-45
2022/04/20 07:34:58;;;;;;;4.70;1.38;;;;;;;25.88;29.33;101227.47;4954633;29;20055;-45
2022/04/20 07:37:26;;;;;;;4.90;1.17;;;;;;;25.88;29.64;101219.56;4954924;29;20469;-47
2022/04/20 07:39:55;;;;;;;5.65;1.38;;;;;;;25.94;29.53;101217.03;4938020;29;20030;-45
2022/04/20 07:42:23;;;;;;;5.90;1.35;;;;;;;25.99;29.04;101213.53;4937306;29;20545;-49
2022/04/20 07:44:56;;;;;;;3.72;1.33;;;;;;;26.02;29.29;101203.03;4955255;29;20038;-52
2022/04/20 07:47:25;;;;;;;3.70;1.50;;;;;;;26.05;29.38;101217.13;4954941;29;20035;-50
2022/04/20 07:50:35;;;;;;;9.05;1.90;;;;;;;26.08;29.02;101216.25;4954787;29;20474;-50
2022/04/20 07:52:42;;;;;;;8.25;1.90;;;;;;;26.12;29.18;101210.19;4937478;29;20098;-47
2022/04/20 07:55:13;;;;;;;6.32;1.67;;;;;;;26.13;29.38;101208.41;4938325;29;20381;-45
2022/04/20 07:57:43;;;;;;;4.82;1.63;;;;;;;26.14;29.43;101211.09;4954484;29;20111;-44
2022/04/20 08:00:12;;;;;;;5.97;1.77;;;;;;;26.17;29.41;101194.44;4954350;29;20035;-47
2022/04/20 08:02:41;;;;;;;7.95;1.52;;;;;;;26.19;29.59;101201.47;4955099;28;20094;-46
2022/04/20 08:05:10;;;;;;;5.88;1.60;;;;;;;26.26;29.53;101202.38;4941725;29;20031;-50
2022/04/20 08:07:39;;;;;;;5.80;1.50;;;;;;;26.28;29.28;101197.16;4957395;29;20114;-47
2022/04/20 08:10:09;;;;;;;6.57;1.73;;;;;;;26.30;29.55;101204.16;4957910;29;20031;-45
2022/04/20 08:12:39;;;;;;;7.15;1.75;;;;;;;26.34;29.37;101194.53;4957260;29;20374;-48
2022/04/20 08:15:09;;;;;;;5.88;1.77;;;;;;;26.38;29.51;101206.84;4958011;29;20032;-50
2022/04/20 08:17:38;;;;;;;5.18;1.83;;;;;;;26.38;29.43;101196.31;4957563;29;20477;-44
2022/04/20 08:20:08;;;;;;;3.70;1.63;;;;;;;26.41;29.54;101204.25;4958052;29;20568;-48
2022/04/20 08:22:43;;;;;;;3.88;1.48;;;;;;;26.44;29.40;101206.00;4957624;29;20067;-50
2022/04/20 08:25:13;;;;;;;3.05;1.35;;;;;;;26.47;29.45;101201.66;4940598;29;20122;-50
2022/04/20 08:27:41;;;;;;;3.80;1.35;;;;;;;26.50;29.33;101201.66;4957733;29;20481;-52
2022/04/20 08:30:10;;;;;;;4.95;1.67;;;;;;;26.53;29.18;101204.31;4957608;29;20035;-50
2022/04/20 08:32:40;;;;;;;4.45;1.52;;;;;;;26.52;29.29;101194.66;4957420;29;20031;-45
2022/04/20 08:35:09;;;;;;;3.72;1.30;;;;;;;26.51;29.16;101203.41;4957368;29;20524;-45
2022/04/20 08:37:38;;;;;;;5.30;1.58;;;;;;;26.57;29.18;101199.94;4957469;29;20043;-49
2022/04/20 08:40:06;;;;;;;2.72;1.15;;;;;;;26.61;29.00;101190.34;4957558;29;20374;-48
2022/04/20 08:42:36;;;;;;;4.95;1.23;;;;;;;26.61;29.26;101190.34;4957494;29;20027;-49
2022/04/20 08:45:04;;;;;;;3.20;1.13;;;;;;;26.60;29.26;101184.19;4941214;29;20055;-44
2022/04/20 08:47:37;;;;;;;4.25;1.20;;;;;;;26.65;29.25;101186.81;4957112;29;20110;-47
2022/04/20 08:50:07;;;;;;;5.35;1.60;;;;;;;26.69;29.53;101184.25;4957636;29;20041;-51
2022/04/20 08:52:37;;;;;;;4.65;1.33;;;;;;;26.71;29.38;101180.75;4956972;29;20027;-48
2022/04/20 08:55:08;;;;;;;3.10;0.95;;;;;;;26.74;29.08;101178.09;4957027;29;20035;-47
2022/04/20 08:57:38;;;;;;;3.20;1.20;;;;;;;26.73;29.32;101171.97;4957218;29;20106;-50
2022/04/20 09:00:08;;;;;;;4.15;1.13;;;;;;;26.77;29.30;101173.75;4957000;29;20090;-46
2022/04/20 09:02:38;;;;;;;4.28;1.33;;;;;;;26.79;28.96;101177.31;4956985;29;20066;-49
2022/04/20 09:05:07;;;;;;;3.95;1.10;;;;;;;26.81;29.18;101174.66;4956563;29;20038;-49
2022/04/20 09:07:35;;;;;;;4.85;1.30;;;;;;;26.81;29.21;101180.78;4956724;29;20075;-50
2022/04/20 09:10:03;;;;;;;4.68;1.30;;;;;;;26.84;29.26;101179.94;4939404;29;20032;-46
2022/04/20 09:12:32;;;;;;;2.85;1.27;;;;;;;26.86;29.19;101187.84;4956771;29;20054;-49
2022/04/20 09:15:01;;;;;;;5.68;1.48;;;;;;;26.88;29.08;101188.72;4955260;28;20486;-49
2022/04/20 09:17:32;;;;;;;2.30;0.88;;;;;;;26.87;29.07;101190.50;4956248;29;20039;-49
2022/04/20 09:20:01;;;;;;;2.80;1.20;;;;;;;26.87;29.19;101193.13;4956793;29;20023;-49
2022/04/20 09:22:30;;;;;;;2.92;1.20;;;;;;;26.89;28.97;101191.34;4956553;29;20083;-52
2022/04/20 09:25:11;;;;;;;2.97;1.00;;;;;;;26.92;28.86;101177.34;4956558;29;20039;-52
2022/04/20 09:27:41;;;;;;;5.85;1.50;;;;;;;26.94;28.97;101183.50;4956580;29;20035;-50
2022/04/20 09:30:13;;;;;;;3.35;1.23;;;;;;;26.93;29.10;101179.09;4956753;29;20382;-51
2022/04/20 09:32:44;;;;;;;4.13;1.00;;;;;;;26.96;28.87;101163.34;4956498;29;20102;-50
2022/04/20 09:35:14;;;;;;;3.03;1.00;;;;;;;26.97;29.17;101173.00;4955912;29;20046;-50
2022/04/20 09:37:43;;;;;;;3.35;1.17;;;;;;;27.00;29.06;101167.72;4956325;29;20083;-46
2022/04/20 09:40:14;;;;;;;4.50;1.00;;;;;;;26.98;29.07;101158.91;4956384;29;20114;-47
2022/04/20 09:43:04;;;;;;;4.93;1.25;;;;;;;27.03;29.15;101158.97;4956274;29;20499;-48
2022/04/20 09:45:33;;;;;;;3.30;1.00;;;;;;;27.05;28.98;101159.84;4950499;29;20042;-44
2022/04/20 09:49:05;;;;;;;2.65;0.80;;;;;;;27.07;28.99;101153.69;4956266;29;20071;-45
2022/04/20 09:51:13;;;;;;;3.35;1.40;;;;;;;27.06;29.04;101157.22;4951882;29;20082;-49
2022/04/20 09:53:43;;;;;;;4.88;1.25;;;;;;;27.05;29.09;101154.59;4939328;29;20111;-44
2022/04/20 09:56:32;;;;;;;2.78;1.00;;;;;;;27.12;29.01;101145.81;4956081;29;20055;-47
2022/04/20 09:59:02;;;;;;;4.82;1.30;;;;;;;27.06;28.84;101130.88;4956868;29;20027;-50
2022/04/20 10:01:31;;;;;;;2.70;1.00;;;;;;;27.18;28.73;101137.94;4955451;29;20031;-47
2022/04/20 10:04:01;;;;;;;4.80;0.95;;;;;;;27.17;28.74;101143.19;4955955;29;20055;-45
2022/04/20 10:06:30;;;;;;;2.50;1.00;;;;;;;27.16;29.06;101129.16;4955647;29;20082;-46
2022/04/20 10:08:59;;;;;;;2.45;1.17;;;;;;;27.18;28.93;101137.03;4956089;29;20102;-47
2022/04/20 10:11:28;;;;;;;4.22;1.27;;;;;;;27.19;28.75;101129.16;4955529;29;20090;-48
2022/04/20 10:16:50;;;;;;;1.23;0.65;;;;;;;27.23;28.84;101132.66;4948832;29;20035;-46
2022/04/20 10:19:27;;;;;;;3.47;1.23;;;;;;;27.24;28.88;101127.38;4955242;29;20110;-49
2022/04/20 10:21:57;;;;;;;9.23;1.10;;;;;;;27.28;28.77;101129.16;4955681;29;20114;-47
2022/04/20 10:24:30;;;;;;;2.30;0.90;;;;;;;27.29;28.73;101125.66;4955536;29;20031;-52
2022/04/20 10:27:04;;;;;;;3.10;1.00;;;;;;;27.29;28.72;101122.16;4938137;29;20039;-49
2022/04/20 10:29:47;;;;;;;3.60;1.25;;;;;;;27.32;28.64;101127.41;4955473;29;20536;-47
2022/04/20 10:32:23;;;;;;;4.47;1.30;;;;;;;27.34;28.71;101115.13;4955150;29;20580;-50
2022/04/20 10:34:52;;;;;;;3.92;1.02;;;;;;;27.36;28.56;101120.41;4955247;29;20055;-52
2022/04/20 10:37:28;;;;;;;3.22;1.08;;;;;;;27.38;28.68;101124.78;4955309;29;20102;-46
2022/04/20 10:40:15;;;;;;;4.45;1.17;;;;;;;27.40;28.70;101119.50;4939645;29;20023;-44
2022/04/20 10:42:44;;;;;;;2.95;0.80;;;;;;;27.42;28.52;101115.13;4955288;29;20110;-49
2022/04/20 10:45:16;;;;;;;1.25;0.77;;;;;;;27.45;28.69;101112.50;4938228;29;20032;-48
2022/04/20 10:47:45;;;;;;;3.30;1.23;;;;;;;27.43;28.49;101108.97;4955271;29;20031;-47
2022/04/20 10:50:26;;;;;;;3.40;1.20;;;;;;;27.48;28.65;101114.28;4938433;29;20043;-49
2022/04/20 10:53:01;;;;;;;1.73;0.90;;;;;;;27.48;28.55;101109.91;4955164;29;20031;-47
2022/04/20 10:55:31;;;;;;;2.03;0.85;;;;;;;27.52;28.55;101109.03;4955303;29;20134;-48
2022/04/20 10:58:19;;;;;;;3.58;1.00;;;;;;;27.53;28.28;101102.88;4955230;29;20031;-46
2022/04/20 11:00:50;;;;;;;3.45;1.00;;;;;;;27.53;28.61;101102.00;4952036;29;20044;-46
2022/04/20 11:03:19;;;;;;;2.97;1.10;;;;;;;27.51;28.39;101095.84;4922375;29;20023;-44
2022/04/20 11:05:54;;;;;;;2.70;0.85;;;;;;;27.57;28.49;101095.84;4938219;29;20027;-48
2022/04/20 11:08:24;;;;;;;3.42;1.25;;;;;;;27.58;28.20;101100.25;4955087;29;20042;-48
2022/04/20 11:19:53;;;;;;;1.80;0.87;;;;;;;27.64;28.36;101076.50;4948383;29;20039;-50
2022/04/20 11:22:22;;;;;;;4.15;1.25;;;;;;;27.70;28.11;101081.78;4954917;29;20027;-46
2022/04/20 11:25:02;;;;;;;4.18;1.20;;;;;;;27.70;28.11;101073.88;4938190;29;20078;-44
2022/04/20 11:27:40;;;;;;;2.17;1.25;;;;;;;27.69;28.22;101071.25;4955091;29;20079;-44
2022/04/20 11:30:14;;;;;;;2.08;0.80;;;;;;;27.66;28.35;101065.97;4922169;29;20114;-44
2022/04/20 11:32:45;;;;;;;2.55;0.98;;;;;;;27.72;28.09;101069.47;4955193;29;20020;-47
2022/04/20 11:35:15;;;;;;;2.17;1.02;;;;;;;27.73;28.18;101067.72;4937972;29;20102;-49
2022/04/20 11:38:01;;;;;;;2.60;1.35;;;;;;;27.78;28.22;101065.97;4955375;28;20090;-49
2022/04/20 11:40:30;;;;;;;3.60;1.00;;;;;;;27.73;28.04;101068.59;4958553;29;20548;-48
2022/04/20 11:43:10;;;;;;;3.03;1.20;;;;;;;27.73;27.98;101060.69;4941689;29;20058;-51
2022/04/20 11:45:39;;;;;;;2.88;1.00;;;;;;;27.74;28.21;101058.94;4958857;29;20023;-47
2022/04/20 11:48:10;;;;;;;2.00;1.17;;;;;;;27.74;27.93;101053.66;4958735;29;20031;-46
2022/04/20 11:50:39;;;;;;;2.83;1.00;;;;;;;27.77;27.93;101056.28;4926374;29;20038;-47
2022/04/20 11:53:15;;;;;;;3.13;1.30;;;;;;;27.82;27.73;101049.25;4958210;29;20035;-44
2022/04/20 11:55:48;;;;;;;2.17;0.95;;;;;;;27.78;28.02;101044.00;4958731;29;20140;-53
2022/04/20 11:58:17;;;;;;;2.00;0.90;;;;;;;27.78;27.94;101047.50;4958458;29;20054;-49
2022/04/20 12:00:46;;;;;;;2.92;1.00;;;;;;;27.81;27.89;101049.25;4958346;29;20032;-46
2022/04/20 12:03:14;;;;;;;3.13;1.42;;;;;;;27.79;27.87;101051.03;4957659;29;20027;-45
2022/04/20 12:05:43;;;;;;;2.65;1.05;;;;;;;27.79;27.91;101053.66;4957998;29;20034;-48